sensor_id;sensor_type;location;lat;lon;timestamp;P1;durP1;ratioP1;P2;durP2;ratioP2
7669;SDS011;3877;42.562;27.636;2022-10-31T00:02:03;14.07;;;9.03;;
7669;SDS011;3877;42.562;27.636;2022-10-31T00:04:31;12.50;;;8.93;;
7669;SDS011;3877;42.562;27.636;2022-10-31T00:06:58;14.03;;;8.77;;
7669;SDS011;3877;42.562;27.636;2022-10-31T00:09:25;12.83;;;8.53;;
7669;SDS011;3877;42.562;27.636;2022-10-31T00:11:51;13.10;;;8.53;;
7669;SDS011;3877;42.562;27.636;2022-10-31T00:14:18;10.97;;;8.17;;
7669;SDS011;3877;42.562;27.636;2022-10-31T00:16:45;12.53;;;9.10;;
7669;SDS011;3877;42.562;27.636;2022-10-31T00:19:12;13.47;;;8.90;;
7669;SDS011;3877;42.562;27.636;2022-10-31T00:21:40;15.23;;;8.93;;
7669;SDS011;3877;42.562;27.636;2022-10-31T00:24:07;13.10;;;8.10;;
7669;SDS011;3877;42.562;27.636;2022-10-31T00:26:34;12.60;;;8.37;;
7669;SDS011;3877;42.562;27.636;2022-10-31T00:29:01;16.47;;;8.63;;
7669;SDS011;3877;42.562;27.636;2022-10-31T00:31:31;14.87;;;8.43;;
7669;SDS011;3877;42.562;27.636;2022-10-31T00:33:58;14.73;;;8.47;;
7669;SDS011;3877;42.562;27.636;2022-10-31T00:36:24;13.50;;;8.63;;
7669;SDS011;3877;42.562;27.636;2022-10-31T00:38:53;12.30;;;9.00;;
7669;SDS011;3877;42.562;27.636;2022-10-31T00:41:20;15.17;;;9.20;;
7669;SDS011;3877;42.562;27.636;2022-10-31T00:43:47;11.90;;;8.63;;
7669;SDS011;3877;42.562;27.636;2022-10-31T00:46:14;11.97;;;8.93;;
7669;SDS011;3877;42.562;27.636;2022-10-31T00:48:41;15.93;;;9.27;;
7669;SDS011;3877;42.562;27.636;2022-10-31T00:51:08;14.80;;;8.90;;
7669;SDS011;3877;42.562;27.636;2022-10-31T00:53:35;18.20;;;8.93;;
7669;SDS011;3877;42.562;27.636;2022-10-31T00:56:04;13.97;;;9.77;;
7669;SDS011;3877;42.562;27.636;2022-10-31T00:58:31;13.20;;;8.37;;
7669;SDS011;3877;42.562;27.636;2022-10-31T01:00:58;17.97;;;8.93;;
7669;SDS011;3877;42.562;27.636;2022-10-31T01:03:26;16.53;;;8.77;;
7669;SDS011;3877;42.562;27.636;2022-10-31T01:05:56;14.03;;;8.77;;
7669;SDS011;3877;42.562;27.636;2022-10-31T01:08:23;12.97;;;9.07;;
7669;SDS011;3877;42.562;27.636;2022-10-31T01:11:01;13.93;;;8.97;;
7669;SDS011;3877;42.562;27.636;2022-10-31T01:13:29;25.10;;;8.17;;
7669;SDS011;3877;42.562;27.636;2022-10-31T01:15:56;14.00;;;9.20;;
7669;SDS011;3877;42.562;27.636;2022-10-31T01:18:23;13.83;;;9.60;;
7669;SDS011;3877;42.562;27.636;2022-10-31T01:20:57;14.63;;;9.43;;
7669;SDS011;3877;42.562;27.636;2022-10-31T01:23:24;19.23;;;9.47;;
7669;SDS011;3877;42.562;27.636;2022-10-31T01:25:58;14.93;;;9.13;;
7669;SDS011;3877;42.562;27.636;2022-10-31T01:28:25;17.20;;;9.20;;
7669;SDS011;3877;42.562;27.636;2022-10-31T01:30:53;14.37;;;9.13;;
7669;SDS011;3877;42.562;27.636;2022-10-31T01:33:20;19.47;;;9.20;;
7669;SDS011;3877;42.562;27.636;2022-10-31T01:35:47;12.37;;;8.17;;
7669;SDS011;3877;42.562;27.636;2022-10-31T01:38:14;14.70;;;8.13;;
7669;SDS011;3877;42.562;27.636;2022-10-31T01:40:40;14.60;;;8.10;;
7669;SDS011;3877;42.562;27.636;2022-10-31T01:43:09;11.77;;;8.30;;
7669;SDS011;3877;42.562;27.636;2022-10-31T01:45:38;17.63;;;8.40;;
7669;SDS011;3877;42.562;27.636;2022-10-31T01:48:06;13.17;;;8.17;;
7669;SDS011;3877;42.562;27.636;2022-10-31T01:50:38;16.07;;;8.70;;
7669;SDS011;3877;42.562;27.636;2022-10-31T01:53:06;15.30;;;8.90;;
7669;SDS011;3877;42.562;27.636;2022-10-31T01:55:35;13.30;;;8.33;;
7669;SDS011;3877;42.562;27.636;2022-10-31T01:58:05;12.87;;;8.60;;
7669;SDS011;3877;42.562;27.636;2022-10-31T02:00:33;12.23;;;9.00;;
7669;SDS011;3877;42.562;27.636;2022-10-31T02:03:00;13.20;;;9.73;;
7669;SDS011;3877;42.562;27.636;2022-10-31T02:05:29;11.83;;;7.97;;
7669;SDS011;3877;42.562;27.636;2022-10-31T02:07:57;20.17;;;9.13;;
7669;SDS011;3877;42.562;27.636;2022-10-31T02:10:25;13.57;;;8.30;;
7669;SDS011;3877;42.562;27.636;2022-10-31T02:12:53;14.20;;;9.30;;
7669;SDS011;3877;42.562;27.636;2022-10-31T02:15:21;11.63;;;7.83;;
7669;SDS011;3877;42.562;27.636;2022-10-31T02:17:48;11.23;;;8.40;;
7669;SDS011;3877;42.562;27.636;2022-10-31T02:20:16;12.60;;;8.73;;
7669;SDS011;3877;42.562;27.636;2022-10-31T02:22:50;14.70;;;9.20;;
7669;SDS011;3877;42.562;27.636;2022-10-31T02:25:31;13.77;;;8.83;;
7669;SDS011;3877;42.562;27.636;2022-10-31T02:28:07;16.77;;;8.83;;
7669;SDS011;3877;42.562;27.636;2022-10-31T02:30:38;16.83;;;9.27;;
7669;SDS011;3877;42.562;27.636;2022-10-31T02:33:11;14.13;;;9.43;;
7669;SDS011;3877;42.562;27.636;2022-10-31T02:35:47;14.20;;;8.37;;
7669;SDS011;3877;42.562;27.636;2022-10-31T02:38:21;18.63;;;9.27;;
7669;SDS011;3877;42.562;27.636;2022-10-31T02:40:51;12.03;;;8.70;;
7669;SDS011;3877;42.562;27.636;2022-10-31T02:43:20;15.37;;;9.53;;
7669;SDS011;3877;42.562;27.636;2022-10-31T02:45:50;12.27;;;9.27;;
7669;SDS011;3877;42.562;27.636;2022-10-31T02:48:23;14.63;;;8.53;;
7669;SDS011;3877;42.562;27.636;2022-10-31T02:50:52;18.53;;;8.80;;
7669;SDS011;3877;42.562;27.636;2022-10-31T02:53:20;12.40;;;8.73;;
7669;SDS011;3877;42.562;27.636;2022-10-31T02:55:50;17.38;;;8.55;;
7669;SDS011;3877;42.562;27.636;2022-10-31T02:58:18;14.07;;;8.30;;
7669;SDS011;3877;42.562;27.636;2022-10-31T03:00:49;18.10;;;8.70;;
7669;SDS011;3877;42.562;27.636;2022-10-31T03:03:19;12.50;;;8.80;;
7669;SDS011;3877;42.562;27.636;2022-10-31T03:05:53;15.50;;;8.77;;
7669;SDS011;3877;42.562;27.636;2022-10-31T03:08:22;12.10;;;8.70;;
7669;SDS011;3877;42.562;27.636;2022-10-31T03:10:52;12.53;;;8.60;;
7669;SDS011;3877;42.562;27.636;2022-10-31T03:13:21;16.47;;;8.77;;
7669;SDS011;3877;42.562;27.636;2022-10-31T03:15:50;16.87;;;8.67;;
7669;SDS011;3877;42.562;27.636;2022-10-31T03:18:20;11.17;;;8.67;;
7669;SDS011;3877;42.562;27.636;2022-10-31T03:20:50;14.83;;;8.60;;
7669;SDS011;3877;42.562;27.636;2022-10-31T03:23:21;15.03;;;8.97;;
7669;SDS011;3877;42.562;27.636;2022-10-31T03:25:49;14.90;;;9.03;;
7669;SDS011;3877;42.562;27.636;2022-10-31T03:28:18;14.17;;;8.90;;
7669;SDS011;3877;42.562;27.636;2022-10-31T03:30:45;15.23;;;8.73;;
7669;SDS011;3877;42.562;27.636;2022-10-31T03:33:15;12.63;;;9.37;;
7669;SDS011;3877;42.562;27.636;2022-10-31T03:35:44;12.73;;;9.07;;
7669;SDS011;3877;42.562;27.636;2022-10-31T03:38:13;15.23;;;9.53;;
7669;SDS011;3877;42.562;27.636;2022-10-31T03:40:43;13.43;;;8.60;;
7669;SDS011;3877;42.562;27.636;2022-10-31T03:43:12;11.93;;;8.87;;
7669;SDS011;3877;42.562;27.636;2022-10-31T03:45:41;14.67;;;8.73;;
7669;SDS011;3877;42.562;27.636;2022-10-31T03:48:09;13.10;;;9.47;;
7669;SDS011;3877;42.562;27.636;2022-10-31T03:50:37;11.47;;;8.77;;
7669;SDS011;3877;42.562;27.636;2022-10-31T03:53:06;12.57;;;8.40;;
7669;SDS011;3877;42.562;27.636;2022-10-31T03:55:36;13.30;;;8.87;;
7669;SDS011;3877;42.562;27.636;2022-10-31T03:58:08;14.57;;;8.70;;
7669;SDS011;3877;42.562;27.636;2022-10-31T04:00:36;13.07;;;9.27;;
7669;SDS011;3877;42.562;27.636;2022-10-31T04:03:06;16.90;;;8.37;;
7669;SDS011;3877;42.562;27.636;2022-10-31T04:05:33;14.37;;;8.60;;
7669;SDS011;3877;42.562;27.636;2022-10-31T04:08:01;14.97;;;8.80;;
7669;SDS011;3877;42.562;27.636;2022-10-31T04:10:29;11.93;;;9.07;;
7669;SDS011;3877;42.562;27.636;2022-10-31T04:12:57;13.60;;;8.87;;
7669;SDS011;3877;42.562;27.636;2022-10-31T04:15:27;14.13;;;8.93;;
7669;SDS011;3877;42.562;27.636;2022-10-31T04:17:55;11.67;;;8.93;;
7669;SDS011;3877;42.562;27.636;2022-10-31T04:20:29;15.13;;;9.17;;
7669;SDS011;3877;42.562;27.636;2022-10-31T04:22:56;11.87;;;9.40;;
7669;SDS011;3877;42.562;27.636;2022-10-31T04:25:22;16.00;;;9.10;;
7669;SDS011;3877;42.562;27.636;2022-10-31T04:27:49;14.33;;;9.03;;
7669;SDS011;3877;42.562;27.636;2022-10-31T04:30:17;20.87;;;9.63;;
7669;SDS011;3877;42.562;27.636;2022-10-31T04:32:45;12.60;;;8.83;;
7669;SDS011;3877;42.562;27.636;2022-10-31T04:35:12;13.37;;;8.97;;
7669;SDS011;3877;42.562;27.636;2022-10-31T04:37:39;14.03;;;8.90;;
7669;SDS011;3877;42.562;27.636;2022-10-31T04:40:06;13.37;;;8.73;;
7669;SDS011;3877;42.562;27.636;2022-10-31T04:42:33;13.93;;;9.07;;
7669;SDS011;3877;42.562;27.636;2022-10-31T04:45:00;12.30;;;8.77;;
7669;SDS011;3877;42.562;27.636;2022-10-31T04:47:27;18.73;;;10.00;;
7669;SDS011;3877;42.562;27.636;2022-10-31T04:49:58;16.80;;;9.40;;
7669;SDS011;3877;42.562;27.636;2022-10-31T04:52:25;14.63;;;9.10;;
7669;SDS011;3877;42.562;27.636;2022-10-31T04:54:52;15.97;;;10.00;;
7669;SDS011;3877;42.562;27.636;2022-10-31T04:57:19;14.40;;;9.93;;
7669;SDS011;3877;42.562;27.636;2022-10-31T04:59:46;14.50;;;8.90;;
7669;SDS011;3877;42.562;27.636;2022-10-31T05:02:13;18.47;;;9.60;;
7669;SDS011;3877;42.562;27.636;2022-10-31T05:04:40;14.10;;;9.53;;
7669;SDS011;3877;42.562;27.636;2022-10-31T05:07:08;19.37;;;9.57;;
7669;SDS011;3877;42.562;27.636;2022-10-31T05:09:35;14.77;;;9.27;;
7669;SDS011;3877;42.562;27.636;2022-10-31T05:12:02;14.53;;;9.80;;
7669;SDS011;3877;42.562;27.636;2022-10-31T05:14:29;17.13;;;9.43;;
7669;SDS011;3877;42.562;27.636;2022-10-31T05:16:56;12.57;;;9.53;;
7669;SDS011;3877;42.562;27.636;2022-10-31T05:19:23;13.47;;;8.93;;
7669;SDS011;3877;42.562;27.636;2022-10-31T05:21:50;12.93;;;8.87;;
7669;SDS011;3877;42.562;27.636;2022-10-31T05:24:18;21.73;;;9.40;;
7669;SDS011;3877;42.562;27.636;2022-10-31T05:26:47;16.50;;;9.10;;
7669;SDS011;3877;42.562;27.636;2022-10-31T05:29:14;15.27;;;8.50;;
7669;SDS011;3877;42.562;27.636;2022-10-31T05:31:41;14.40;;;10.00;;
7669;SDS011;3877;42.562;27.636;2022-10-31T05:34:07;14.00;;;9.67;;
7669;SDS011;3877;42.562;27.636;2022-10-31T05:36:35;12.40;;;9.40;;
7669;SDS011;3877;42.562;27.636;2022-10-31T05:39:02;19.23;;;9.17;;
7669;SDS011;3877;42.562;27.636;2022-10-31T05:41:30;15.93;;;9.60;;
7669;SDS011;3877;42.562;27.636;2022-10-31T05:43:57;16.03;;;9.67;;
7669;SDS011;3877;42.562;27.636;2022-10-31T05:46:24;13.93;;;9.53;;
7669;SDS011;3877;42.562;27.636;2022-10-31T05:48:50;13.93;;;10.00;;
7669;SDS011;3877;42.562;27.636;2022-10-31T05:51:18;18.43;;;10.37;;
7669;SDS011;3877;42.562;27.636;2022-10-31T05:53:45;17.53;;;10.63;;
7669;SDS011;3877;42.562;27.636;2022-10-31T05:56:12;12.20;;;9.67;;
7669;SDS011;3877;42.562;27.636;2022-10-31T05:58:41;23.17;;;9.23;;
7669;SDS011;3877;42.562;27.636;2022-10-31T06:01:08;14.50;;;9.60;;
7669;SDS011;3877;42.562;27.636;2022-10-31T06:03:35;16.60;;;9.77;;
7669;SDS011;3877;42.562;27.636;2022-10-31T06:06:02;16.03;;;10.43;;
7669;SDS011;3877;42.562;27.636;2022-10-31T06:08:28;17.07;;;10.00;;
7669;SDS011;3877;42.562;27.636;2022-10-31T06:10:55;19.63;;;10.60;;
7669;SDS011;3877;42.562;27.636;2022-10-31T06:13:22;16.97;;;9.00;;
7669;SDS011;3877;42.562;27.636;2022-10-31T06:15:53;14.20;;;9.30;;
7669;SDS011;3877;42.562;27.636;2022-10-31T06:18:20;13.07;;;9.13;;
7669;SDS011;3877;42.562;27.636;2022-10-31T06:20:47;13.07;;;9.57;;
7669;SDS011;3877;42.562;27.636;2022-10-31T06:23:14;15.30;;;9.43;;
7669;SDS011;3877;42.562;27.636;2022-10-31T06:25:41;16.53;;;9.33;;
7669;SDS011;3877;42.562;27.636;2022-10-31T06:28:08;20.43;;;10.60;;
7669;SDS011;3877;42.562;27.636;2022-10-31T06:30:35;18.83;;;10.07;;
7669;SDS011;3877;42.562;27.636;2022-10-31T06:33:03;18.17;;;9.63;;
7669;SDS011;3877;42.562;27.636;2022-10-31T06:35:31;18.20;;;9.83;;
7669;SDS011;3877;42.562;27.636;2022-10-31T06:37:58;22.63;;;11.90;;
7669;SDS011;3877;42.562;27.636;2022-10-31T06:40:24;19.23;;;10.30;;
7669;SDS011;3877;42.562;27.636;2022-10-31T06:42:57;16.53;;;9.43;;
7669;SDS011;3877;42.562;27.636;2022-10-31T06:45:24;21.53;;;9.80;;
7669;SDS011;3877;42.562;27.636;2022-10-31T06:47:51;18.10;;;9.97;;
7669;SDS011;3877;42.562;27.636;2022-10-31T06:50:20;19.98;;;10.70;;
7669;SDS011;3877;42.562;27.636;2022-10-31T06:52:50;17.67;;;10.57;;
7669;SDS011;3877;42.562;27.636;2022-10-31T06:55:17;20.17;;;10.27;;
7669;SDS011;3877;42.562;27.636;2022-10-31T06:57:49;17.63;;;9.77;;
7669;SDS011;3877;42.562;27.636;2022-10-31T07:00:16;15.27;;;10.37;;
7669;SDS011;3877;42.562;27.636;2022-10-31T07:02:43;22.27;;;10.90;;
7669;SDS011;3877;42.562;27.636;2022-10-31T07:05:10;21.15;;;10.45;;
7669;SDS011;3877;42.562;27.636;2022-10-31T07:07:38;19.10;;;9.60;;
7669;SDS011;3877;42.562;27.636;2022-10-31T07:10:05;16.40;;;8.45;;
7669;SDS011;3877;42.562;27.636;2022-10-31T07:12:32;15.38;;;9.57;;
7669;SDS011;3877;42.562;27.636;2022-10-31T07:14:59;13.93;;;9.15;;
7669;SDS011;3877;42.562;27.636;2022-10-31T07:17:26;21.38;;;10.82;;
7669;SDS011;3877;42.562;27.636;2022-10-31T07:19:53;13.00;;;9.85;;
7669;SDS011;3877;42.562;27.636;2022-10-31T07:22:19;19.73;;;10.17;;
7669;SDS011;3877;42.562;27.636;2022-10-31T07:24:48;15.73;;;9.30;;
7669;SDS011;3877;42.562;27.636;2022-10-31T07:27:15;14.05;;;9.48;;
7669;SDS011;3877;42.562;27.636;2022-10-31T07:29:42;16.57;;;9.70;;
7669;SDS011;3877;42.562;27.636;2022-10-31T07:32:09;17.67;;;10.20;;
7669;SDS011;3877;42.562;27.636;2022-10-31T07:34:36;19.67;;;9.47;;
7669;SDS011;3877;42.562;27.636;2022-10-31T07:37:03;15.82;;;7.00;;
7669;SDS011;3877;42.562;27.636;2022-10-31T07:39:30;10.63;;;5.93;;
7669;SDS011;3877;42.562;27.636;2022-10-31T07:41:59;17.58;;;6.70;;
7669;SDS011;3877;42.562;27.636;2022-10-31T07:44:26;10.43;;;6.35;;
7669;SDS011;3877;42.562;27.636;2022-10-31T07:46:53;13.32;;;6.18;;
7669;SDS011;3877;42.562;27.636;2022-10-31T07:49:20;15.18;;;6.60;;
7669;SDS011;3877;42.562;27.636;2022-10-31T07:51:46;11.15;;;8.10;;
7669;SDS011;3877;42.562;27.636;2022-10-31T07:54:13;13.80;;;8.30;;
7669;SDS011;3877;42.562;27.636;2022-10-31T07:56:40;18.08;;;9.45;;
7669;SDS011;3877;42.562;27.636;2022-10-31T07:59:08;12.90;;;8.48;;
7669;SDS011;3877;42.562;27.636;2022-10-31T08:01:36;15.63;;;8.80;;
7669;SDS011;3877;42.562;27.636;2022-10-31T08:04:02;11.77;;;8.60;;
7669;SDS011;3877;42.562;27.636;2022-10-31T08:06:29;16.55;;;9.98;;
7669;SDS011;3877;42.562;27.636;2022-10-31T08:08:56;14.63;;;8.90;;
7669;SDS011;3877;42.562;27.636;2022-10-31T08:11:23;17.08;;;7.57;;
7669;SDS011;3877;42.562;27.636;2022-10-31T08:13:50;13.55;;;7.30;;
7669;SDS011;3877;42.562;27.636;2022-10-31T08:16:18;17.13;;;7.15;;
7669;SDS011;3877;42.562;27.636;2022-10-31T08:18:45;10.82;;;7.53;;
7669;SDS011;3877;42.562;27.636;2022-10-31T08:21:12;24.92;;;8.02;;
7669;SDS011;3877;42.562;27.636;2022-10-31T08:23:39;13.02;;;6.72;;
7669;SDS011;3877;42.562;27.636;2022-10-31T08:26:06;11.57;;;7.15;;
7669;SDS011;3877;42.562;27.636;2022-10-31T08:28:33;13.60;;;7.95;;
7669;SDS011;3877;42.562;27.636;2022-10-31T08:31:00;15.13;;;7.63;;
7669;SDS011;3877;42.562;27.636;2022-10-31T08:33:29;11.93;;;7.00;;
7669;SDS011;3877;42.562;27.636;2022-10-31T08:35:57;14.55;;;7.50;;
7669;SDS011;3877;42.562;27.636;2022-10-31T08:38:24;13.77;;;7.38;;
7669;SDS011;3877;42.562;27.636;2022-10-31T08:40:50;12.68;;;8.00;;
7669;SDS011;3877;42.562;27.636;2022-10-31T08:43:17;14.65;;;7.70;;
7669;SDS011;3877;42.562;27.636;2022-10-31T08:45:46;17.05;;;7.72;;
7669;SDS011;3877;42.562;27.636;2022-10-31T08:48:14;15.60;;;7.68;;
7669;SDS011;3877;42.562;27.636;2022-10-31T08:50:43;17.58;;;8.48;;
7669;SDS011;3877;42.562;27.636;2022-10-31T08:53:11;12.87;;;7.70;;
7669;SDS011;3877;42.562;27.636;2022-10-31T08:55:38;11.63;;;7.70;;
7669;SDS011;3877;42.562;27.636;2022-10-31T08:58:06;11.50;;;7.40;;
7669;SDS011;3877;42.562;27.636;2022-10-31T09:00:33;27.58;;;9.35;;
7669;SDS011;3877;42.562;27.636;2022-10-31T09:03:01;16.80;;;8.30;;
7669;SDS011;3877;42.562;27.636;2022-10-31T09:05:28;14.80;;;8.47;;
7669;SDS011;3877;42.562;27.636;2022-10-31T09:07:57;17.25;;;8.00;;
7669;SDS011;3877;42.562;27.636;2022-10-31T09:10:24;17.75;;;8.68;;
7669;SDS011;3877;42.562;27.636;2022-10-31T09:12:54;14.68;;;8.80;;
7669;SDS011;3877;42.562;27.636;2022-10-31T09:15:21;15.90;;;8.70;;
7669;SDS011;3877;42.562;27.636;2022-10-31T09:17:48;13.00;;;8.63;;
7669;SDS011;3877;42.562;27.636;2022-10-31T09:20:15;13.43;;;9.80;;
7669;SDS011;3877;42.562;27.636;2022-10-31T09:22:42;18.58;;;10.63;;
7669;SDS011;3877;42.562;27.636;2022-10-31T09:25:10;16.27;;;9.77;;
7669;SDS011;3877;42.562;27.636;2022-10-31T09:27:37;20.77;;;10.70;;
7669;SDS011;3877;42.562;27.636;2022-10-31T09:30:04;19.02;;;10.65;;
7669;SDS011;3877;42.562;27.636;2022-10-31T09:32:31;20.30;;;10.57;;
7669;SDS011;3877;42.562;27.636;2022-10-31T09:34:58;17.80;;;10.10;;
7669;SDS011;3877;42.562;27.636;2022-10-31T09:37:25;17.50;;;10.40;;
7669;SDS011;3877;42.562;27.636;2022-10-31T09:39:52;23.13;;;10.33;;
7669;SDS011;3877;42.562;27.636;2022-10-31T09:45:06;18.23;;;10.50;;
7669;SDS011;3877;42.562;27.636;2022-10-31T09:47:40;17.13;;;10.13;;
7669;SDS011;3877;42.562;27.636;2022-10-31T09:50:13;15.07;;;9.60;;
7669;SDS011;3877;42.562;27.636;2022-10-31T09:52:51;19.27;;;10.80;;
7669;SDS011;3877;42.562;27.636;2022-10-31T09:55:21;16.50;;;10.10;;
7669;SDS011;3877;42.562;27.636;2022-10-31T09:57:49;14.10;;;9.93;;
7669;SDS011;3877;42.562;27.636;2022-10-31T10:00:19;14.73;;;9.37;;
7669;SDS011;3877;42.562;27.636;2022-10-31T10:02:47;14.03;;;9.57;;
7669;SDS011;3877;42.562;27.636;2022-10-31T10:05:17;17.17;;;9.57;;
7669;SDS011;3877;42.562;27.636;2022-10-31T10:07:47;18.50;;;9.45;;
7669;SDS011;3877;42.562;27.636;2022-10-31T10:10:17;17.07;;;9.83;;
7669;SDS011;3877;42.562;27.636;2022-10-31T10:12:50;17.70;;;9.60;;
7669;SDS011;3877;42.562;27.636;2022-10-31T10:15:31;17.20;;;9.63;;
7669;SDS011;3877;42.562;27.636;2022-10-31T10:18:02;18.17;;;10.07;;
7669;SDS011;3877;42.562;27.636;2022-10-31T10:20:31;18.97;;;9.60;;
7669;SDS011;3877;42.562;27.636;2022-10-31T10:23:05;20.58;;;9.88;;
7669;SDS011;3877;42.562;27.636;2022-10-31T10:25:37;18.40;;;9.97;;
7669;SDS011;3877;42.562;27.636;2022-10-31T10:28:10;15.57;;;9.90;;
7669;SDS011;3877;42.562;27.636;2022-10-31T10:30:41;12.82;;;9.30;;
7669;SDS011;3877;42.562;27.636;2022-10-31T10:33:09;16.70;;;9.27;;
7669;SDS011;3877;42.562;27.636;2022-10-31T10:35:39;17.50;;;10.27;;
7669;SDS011;3877;42.562;27.636;2022-10-31T10:38:09;17.27;;;9.93;;
7669;SDS011;3877;42.562;27.636;2022-10-31T10:40:37;18.97;;;10.60;;
7669;SDS011;3877;42.562;27.636;2022-10-31T10:43:11;18.23;;;9.83;;
7669;SDS011;3877;42.562;27.636;2022-10-31T10:46:05;17.50;;;9.60;;
7669;SDS011;3877;42.562;27.636;2022-10-31T10:48:58;18.57;;;9.77;;
7669;SDS011;3877;42.562;27.636;2022-10-31T10:51:31;16.27;;;9.88;;
7669;SDS011;3877;42.562;27.636;2022-10-31T10:54:08;20.05;;;10.88;;
7669;SDS011;3877;42.562;27.636;2022-10-31T10:56:44;17.00;;;11.27;;
7669;SDS011;3877;42.562;27.636;2022-10-31T10:59:13;15.47;;;10.67;;
7669;SDS011;3877;42.562;27.636;2022-10-31T11:01:43;15.50;;;10.03;;
7669;SDS011;3877;42.562;27.636;2022-10-31T11:04:18;21.38;;;10.77;;
7669;SDS011;3877;42.562;27.636;2022-10-31T11:06:56;18.53;;;10.60;;
7669;SDS011;3877;42.562;27.636;2022-10-31T11:09:22;19.25;;;10.45;;
7669;SDS011;3877;42.562;27.636;2022-10-31T11:11:49;18.00;;;10.68;;
7669;SDS011;3877;42.562;27.636;2022-10-31T11:14:16;21.77;;;11.50;;
7669;SDS011;3877;42.562;27.636;2022-10-31T11:16:49;18.67;;;10.10;;
7669;SDS011;3877;42.562;27.636;2022-10-31T11:19:17;19.30;;;11.00;;
7669;SDS011;3877;42.562;27.636;2022-10-31T11:21:45;18.00;;;10.70;;
7669;SDS011;3877;42.562;27.636;2022-10-31T11:24:14;18.03;;;10.20;;
7669;SDS011;3877;42.562;27.636;2022-10-31T11:26:41;16.10;;;9.70;;
7669;SDS011;3877;42.562;27.636;2022-10-31T11:29:12;15.98;;;10.63;;
7669;SDS011;3877;42.562;27.636;2022-10-31T11:31:40;16.40;;;9.20;;
7669;SDS011;3877;42.562;27.636;2022-10-31T11:34:12;16.80;;;9.43;;
7669;SDS011;3877;42.562;27.636;2022-10-31T11:36:42;12.82;;;9.13;;
7669;SDS011;3877;42.562;27.636;2022-10-31T11:39:14;20.70;;;10.52;;
7669;SDS011;3877;42.562;27.636;2022-10-31T11:41:43;17.52;;;9.75;;
7669;SDS011;3877;42.562;27.636;2022-10-31T11:44:11;17.87;;;10.43;;
7669;SDS011;3877;42.562;27.636;2022-10-31T11:46:39;16.48;;;9.85;;
7669;SDS011;3877;42.562;27.636;2022-10-31T11:49:13;15.05;;;10.20;;
7669;SDS011;3877;42.562;27.636;2022-10-31T11:51:42;13.68;;;9.18;;
7669;SDS011;3877;42.562;27.636;2022-10-31T11:54:14;18.13;;;8.65;;
7669;SDS011;3877;42.562;27.636;2022-10-31T11:56:44;16.67;;;8.68;;
7669;SDS011;3877;42.562;27.636;2022-10-31T11:59:18;18.25;;;9.20;;
7669;SDS011;3877;42.562;27.636;2022-10-31T12:01:46;21.60;;;9.13;;
7669;SDS011;3877;42.562;27.636;2022-10-31T12:04:15;16.73;;;8.35;;
7669;SDS011;3877;42.562;27.636;2022-10-31T12:06:42;16.02;;;8.60;;
7669;SDS011;3877;42.562;27.636;2022-10-31T12:09:14;21.40;;;9.52;;
7669;SDS011;3877;42.562;27.636;2022-10-31T12:11:46;13.77;;;8.65;;
7669;SDS011;3877;42.562;27.636;2022-10-31T12:14:20;16.50;;;9.68;;
7669;SDS011;3877;42.562;27.636;2022-10-31T12:16:51;38.13;;;10.00;;
7669;SDS011;3877;42.562;27.636;2022-10-31T12:19:24;17.88;;;8.73;;
7669;SDS011;3877;42.562;27.636;2022-10-31T12:22:05;15.98;;;8.02;;
7669;SDS011;3877;42.562;27.636;2022-10-31T12:24:38;12.65;;;7.78;;
7669;SDS011;3877;42.562;27.636;2022-10-31T12:27:10;12.45;;;8.23;;
7669;SDS011;3877;42.562;27.636;2022-10-31T12:29:52;10.35;;;7.50;;
7669;SDS011;3877;42.562;27.636;2022-10-31T12:32:28;12.77;;;7.85;;
7669;SDS011;3877;42.562;27.636;2022-10-31T12:35:03;17.92;;;8.50;;
7669;SDS011;3877;42.562;27.636;2022-10-31T12:37:34;14.95;;;8.27;;
7669;SDS011;3877;42.562;27.636;2022-10-31T12:40:11;14.57;;;8.55;;
7669;SDS011;3877;42.562;27.636;2022-10-31T12:42:46;12.77;;;7.75;;
7669;SDS011;3877;42.562;27.636;2022-10-31T12:45:24;12.13;;;7.53;;
7669;SDS011;3877;42.562;27.636;2022-10-31T12:47:59;13.05;;;7.78;;
7669;SDS011;3877;42.562;27.636;2022-10-31T12:50:34;11.85;;;7.05;;
7669;SDS011;3877;42.562;27.636;2022-10-31T12:53:07;19.55;;;8.05;;
7669;SDS011;3877;42.562;27.636;2022-10-31T12:55:41;12.73;;;7.35;;
7669;SDS011;3877;42.562;27.636;2022-10-31T12:58:10;16.05;;;7.50;;
7669;SDS011;3877;42.562;27.636;2022-10-31T13:00:39;13.98;;;7.65;;
7669;SDS011;3877;42.562;27.636;2022-10-31T13:03:13;14.15;;;7.47;;
7669;SDS011;3877;42.562;27.636;2022-10-31T13:05:44;11.60;;;7.28;;
7669;SDS011;3877;42.562;27.636;2022-10-31T13:08:14;13.00;;;7.97;;
7669;SDS011;3877;42.562;27.636;2022-10-31T13:10:43;17.25;;;7.20;;
7669;SDS011;3877;42.562;27.636;2022-10-31T13:13:12;7.70;;;6.33;;
7669;SDS011;3877;42.562;27.636;2022-10-31T13:15:46;9.60;;;6.50;;
7669;SDS011;3877;42.562;27.636;2022-10-31T13:18:17;8.77;;;6.47;;
7669;SDS011;3877;42.562;27.636;2022-10-31T13:20:48;8.20;;;6.07;;
7669;SDS011;3877;42.562;27.636;2022-10-31T13:23:16;10.90;;;6.28;;
7669;SDS011;3877;42.562;27.636;2022-10-31T13:25:46;15.77;;;6.60;;
7669;SDS011;3877;42.562;27.636;2022-10-31T13:28:19;11.87;;;6.70;;
7669;SDS011;3877;42.562;27.636;2022-10-31T13:30:48;9.25;;;6.30;;
7669;SDS011;3877;42.562;27.636;2022-10-31T13:33:17;14.93;;;6.57;;
7669;SDS011;3877;42.562;27.636;2022-10-31T13:35:46;9.55;;;6.38;;
7669;SDS011;3877;42.562;27.636;2022-10-31T13:38:18;22.13;;;6.95;;
7669;SDS011;3877;42.562;27.636;2022-10-31T13:40:49;15.93;;;8.48;;
7669;SDS011;3877;42.562;27.636;2022-10-31T13:43:20;9.80;;;6.37;;
7669;SDS011;3877;42.562;27.636;2022-10-31T13:45:49;12.50;;;6.45;;
7669;SDS011;3877;42.562;27.636;2022-10-31T13:48:32;9.63;;;6.38;;
7669;SDS011;3877;42.562;27.636;2022-10-31T13:51:00;12.57;;;5.82;;
7669;SDS011;3877;42.562;27.636;2022-10-31T13:53:37;13.07;;;6.72;;
7669;SDS011;3877;42.562;27.636;2022-10-31T13:56:09;11.37;;;6.60;;
7669;SDS011;3877;42.562;27.636;2022-10-31T13:58:40;11.60;;;6.53;;
7669;SDS011;3877;42.562;27.636;2022-10-31T14:01:14;10.60;;;6.03;;
7669;SDS011;3877;42.562;27.636;2022-10-31T14:03:43;9.77;;;6.03;;
7669;SDS011;3877;42.562;27.636;2022-10-31T14:06:11;10.20;;;6.27;;
7669;SDS011;3877;42.562;27.636;2022-10-31T14:08:40;10.60;;;6.00;;
7669;SDS011;3877;42.562;27.636;2022-10-31T14:11:08;11.20;;;5.90;;
7669;SDS011;3877;42.562;27.636;2022-10-31T14:13:36;15.13;;;6.20;;
7669;SDS011;3877;42.562;27.636;2022-10-31T14:16:07;10.98;;;5.28;;
7669;SDS011;3877;42.562;27.636;2022-10-31T14:18:44;9.80;;;6.00;;
7669;SDS011;3877;42.562;27.636;2022-10-31T14:21:14;16.07;;;5.87;;
7669;SDS011;3877;42.562;27.636;2022-10-31T14:23:42;9.30;;;5.50;;
7669;SDS011;3877;42.562;27.636;2022-10-31T14:26:17;8.63;;;5.73;;
7669;SDS011;3877;42.562;27.636;2022-10-31T14:28:44;12.50;;;5.95;;
7669;SDS011;3877;42.562;27.636;2022-10-31T14:31:25;14.27;;;6.30;;
7669;SDS011;3877;42.562;27.636;2022-10-31T14:33:53;14.93;;;6.33;;
7669;SDS011;3877;42.562;27.636;2022-10-31T14:36:21;17.27;;;6.03;;
7669;SDS011;3877;42.562;27.636;2022-10-31T14:38:52;9.87;;;6.00;;
7669;SDS011;3877;42.562;27.636;2022-10-31T14:41:24;10.73;;;6.70;;
7669;SDS011;3877;42.562;27.636;2022-10-31T14:44:01;14.60;;;6.97;;
7669;SDS011;3877;42.562;27.636;2022-10-31T14:46:35;9.80;;;7.07;;
7669;SDS011;3877;42.562;27.636;2022-10-31T14:49:09;12.93;;;6.77;;
7669;SDS011;3877;42.562;27.636;2022-10-31T14:51:40;20.23;;;6.40;;
7669;SDS011;3877;42.562;27.636;2022-10-31T14:54:12;13.57;;;6.17;;
7669;SDS011;3877;42.562;27.636;2022-10-31T14:56:41;10.43;;;5.87;;
7669;SDS011;3877;42.562;27.636;2022-10-31T14:59:11;13.17;;;7.10;;
7669;SDS011;3877;42.562;27.636;2022-10-31T15:01:39;10.67;;;6.63;;